createdAt,value
2023-05-09T00:00:45.866Z,791.00
2023-05-09T00:01:45.886Z,802.00
2023-05-09T00:02:46.031Z,797.00
2023-05-09T00:03:45.961Z,785.00
2023-05-09T00:04:46.093Z,797.00
2023-05-09T00:05:46.101Z,796.00
2023-05-09T00:06:46.150Z,780.00
2023-05-09T00:07:46.155Z,799.00
2023-05-09T00:08:46.274Z,794.00
2023-05-09T00:09:46.314Z,790.00
2023-05-09T00:10:46.392Z,797.00
2023-05-09T00:11:46.417Z,802.00
2023-05-09T00:12:46.583Z,790.00
2023-05-09T00:13:46.542Z,782.00
2023-05-09T00:14:46.622Z,781.00
2023-05-09T00:15:46.671Z,784.00
2023-05-09T00:16:46.824Z,778.00
2023-05-09T00:17:46.814Z,778.00
2023-05-09T00:18:46.828Z,792.00
2023-05-09T00:19:46.897Z,786.00
2023-05-09T00:20:46.970Z,788.00
2023-05-09T00:21:46.999Z,798.00
2023-05-09T00:22:47.153Z,802.00
2023-05-09T00:23:47.102Z,798.00
2023-05-09T00:24:47.191Z,790.00
2023-05-09T00:25:47.245Z,785.00
2023-05-09T00:26:47.278Z,790.00
2023-05-09T00:27:47.331Z,792.00
2023-05-09T00:28:47.441Z,782.00
2023-05-09T00:29:47.534Z,788.00
2023-05-09T00:30:47.480Z,811.00
2023-05-09T00:31:47.642Z,791.00
2023-05-09T00:32:47.766Z,796.00
2023-05-09T00:33:47.711Z,783.00
2023-05-09T00:34:47.827Z,792.00
2023-05-09T00:35:47.816Z,785.00
2023-05-09T00:36:47.894Z,793.00
2023-05-09T00:37:47.925Z,790.00
2023-05-09T00:38:48.016Z,793.00
2023-05-09T00:39:48.061Z,789.00
2023-05-09T00:40:48.127Z,788.00
2023-05-09T00:41:48.174Z,797.00
2023-05-09T00:42:48.269Z,784.00
2023-05-09T00:43:48.326Z,790.00
2023-05-09T00:44:48.362Z,777.00
2023-05-09T00:45:48.416Z,790.00
2023-05-09T00:46:48.513Z,792.00
2023-05-09T00:47:48.599Z,782.00
2023-05-09T00:48:48.700Z,787.00
2023-05-09T00:49:49.059Z,790.00
2023-05-09T00:50:48.703Z,788.00
2023-05-09T00:51:48.942Z,783.00
2023-05-09T00:52:48.824Z,781.00
2023-05-09T00:53:48.863Z,788.00
2023-05-09T00:54:48.951Z,788.00
2023-05-09T00:55:48.984Z,788.00
2023-05-09T00:56:49.060Z,779.00
2023-05-09T00:57:49.146Z,779.00
2023-05-09T00:58:49.164Z,773.00
2023-05-09T00:59:49.268Z,789.00
2023-05-09T01:00:49.301Z,774.00
2023-05-09T01:01:49.454Z,779.00
2023-05-09T01:02:49.443Z,792.00
2023-05-09T01:03:49.545Z,777.00
2023-05-09T01:04:49.656Z,784.00
2023-05-09T01:05:49.615Z,777.00
2023-05-09T01:06:49.687Z,787.00
2023-05-09T01:07:49.700Z,781.00
2023-05-09T01:08:49.802Z,766.00
2023-05-09T01:09:49.877Z,791.00
2023-05-09T01:10:49.906Z,787.00
2023-05-09T01:11:49.996Z,768.00
2023-05-09T01:12:50.123Z,785.00
2023-05-09T01:13:50.139Z,786.00
2023-05-09T01:14:50.210Z,794.00
2023-05-09T01:15:50.256Z,773.00
2023-05-09T01:16:50.256Z,778.00
2023-05-09T01:17:50.354Z,787.00
2023-05-09T01:18:50.374Z,800.00
2023-05-09T01:19:50.476Z,779.00
2023-05-09T01:20:50.578Z,789.00
2023-05-09T01:21:50.555Z,787.00
2023-05-09T01:22:50.668Z,783.00
2023-05-09T01:23:50.688Z,789.00
2023-05-09T01:24:50.765Z,789.00
2023-05-09T01:25:50.870Z,790.00
2023-05-09T01:26:50.912Z,784.00
2023-05-09T01:27:50.970Z,799.00
2023-05-09T01:28:50.985Z,778.00
2023-05-09T01:29:51.068Z,763.00
2023-05-09T01:30:51.186Z,775.00
2023-05-09T01:31:51.218Z,784.00
2023-05-09T01:32:51.282Z,785.00
2023-05-09T01:33:51.306Z,785.00
2023-05-09T01:34:51.376Z,773.00
2023-05-09T01:35:51.400Z,784.00
2023-05-09T01:36:51.543Z,772.00
2023-05-09T01:37:51.493Z,786.00
2023-05-09T01:38:51.541Z,790.00
2023-05-09T01:39:51.606Z,766.00
2023-05-09T01:40:51.684Z,767.00
2023-05-09T01:41:51.731Z,781.00
2023-05-09T01:42:51.805Z,769.00
2023-05-09T01:43:51.882Z,768.00
2023-05-09T01:44:51.870Z,771.00
2023-05-09T01:45:51.922Z,769.00
2023-05-09T01:46:52.001Z,778.00
2023-05-09T01:47:52.155Z,778.00
2023-05-09T01:48:52.112Z,768.00
2023-05-09T01:49:52.166Z,771.00
2023-05-09T01:50:52.200Z,768.00
2023-05-09T01:51:52.276Z,777.00
2023-05-09T01:52:52.433Z,763.00
2023-05-09T01:53:52.380Z,767.00
2023-05-09T01:54:52.452Z,781.00
2023-05-09T01:55:52.550Z,770.00
2023-05-09T01:56:52.572Z,769.00
2023-05-09T01:57:52.685Z,762.00
2023-05-09T01:58:52.694Z,776.00
2023-05-09T01:59:53.078Z,774.00
2023-05-09T02:00:52.829Z,774.00
2023-05-09T02:01:52.915Z,792.00
2023-05-09T02:02:53.023Z,767.00
2023-05-09T02:03:52.999Z,784.00
2023-05-09T02:04:53.020Z,768.00
2023-05-09T02:05:53.098Z,783.00
2023-05-09T02:06:53.158Z,796.00
2023-05-09T02:07:53.194Z,787.00
2023-05-09T02:08:53.374Z,773.00
2023-05-09T02:09:53.308Z,780.00
2023-05-09T02:10:53.354Z,776.00
2023-05-09T02:11:53.421Z,790.00
2023-05-09T02:12:53.525Z,773.00
2023-05-09T02:13:53.572Z,766.00
2023-05-09T02:14:53.635Z,759.00
2023-05-09T02:15:54.064Z,765.00
2023-05-09T02:16:53.769Z,772.00
2023-05-09T02:17:53.839Z,771.00
2023-05-09T02:18:53.811Z,772.00
2023-05-09T02:19:53.871Z,791.00
2023-05-09T02:20:53.956Z,779.00
2023-05-09T02:21:53.976Z,793.00
2023-05-09T02:22:54.007Z,778.00
2023-05-09T02:23:54.062Z,777.00
2023-05-09T02:24:54.225Z,779.00
2023-05-09T02:25:54.222Z,762.00
2023-05-09T02:26:54.218Z,764.00
2023-05-09T02:27:54.263Z,768.00
2023-05-09T02:28:54.300Z,769.00
2023-05-09T02:29:54.327Z,767.00
2023-05-09T02:30:54.332Z,774.00
2023-05-09T02:31:54.400Z,774.00
2023-05-09T02:32:54.470Z,778.00
2023-05-09T02:33:54.512Z,780.00
2023-05-09T02:34:54.554Z,768.00
2023-05-09T02:35:54.542Z,750.00
2023-05-09T02:36:54.624Z,777.00
2023-05-09T02:37:54.657Z,757.00
2023-05-09T02:38:54.765Z,770.00
2023-05-09T02:39:54.806Z,758.00
2023-05-09T02:40:54.974Z,772.00
2023-05-09T02:41:54.814Z,769.00
2023-05-09T02:42:54.911Z,769.00
2023-05-09T02:43:54.921Z,774.00
2023-05-09T02:44:55.039Z,763.00
2023-05-09T02:45:55.138Z,772.00
2023-05-09T02:46:55.102Z,779.00
2023-05-09T02:47:55.156Z,780.00
2023-05-09T02:48:55.104Z,761.00
2023-05-09T02:49:55.177Z,773.00
2023-05-09T02:50:55.211Z,762.00
2023-05-09T02:51:55.250Z,762.00
2023-05-09T02:52:55.282Z,776.00
2023-05-09T02:53:55.302Z,769.00
2023-05-09T02:54:55.300Z,778.00
2023-05-09T02:55:55.328Z,776.00
2023-05-09T02:56:55.396Z,756.00
2023-05-09T02:58:09.247Z,773.00
2023-05-09T02:58:56.346Z,773.00
2023-05-09T02:59:55.394Z,772.00
2023-05-09T03:00:55.578Z,762.00
2023-05-09T03:01:55.380Z,772.00
2023-05-09T03:02:55.478Z,760.00
2023-05-09T03:03:55.404Z,768.00
2023-05-09T03:04:55.370Z,764.00
2023-05-09T03:05:55.298Z,772.00
2023-05-09T03:06:55.298Z,773.00
2023-05-09T03:07:55.350Z,775.00
2023-05-09T03:08:55.393Z,759.00
2023-05-09T03:09:55.431Z,761.00
2023-05-09T03:10:55.461Z,766.00
2023-05-09T03:11:55.516Z,759.00
2023-05-09T03:12:55.633Z,754.00
2023-05-09T03:13:55.576Z,756.00
2023-05-09T03:14:55.607Z,768.00
2023-05-09T03:15:55.649Z,772.00
2023-05-09T03:16:55.688Z,764.00
2023-05-09T03:17:55.766Z,774.00
2023-05-09T03:18:55.765Z,758.00
2023-05-09T03:19:55.762Z,773.00
2023-05-09T03:20:55.822Z,758.00
2023-05-09T03:21:55.886Z,771.00
2023-05-09T03:22:55.921Z,770.00
2023-05-09T03:23:56.004Z,751.00
2023-05-09T03:24:56.046Z,765.00
2023-05-09T03:25:56.078Z,772.00
2023-05-09T03:26:56.129Z,771.00
2023-05-09T03:27:56.131Z,761.00
2023-05-09T03:28:56.259Z,766.00
2023-05-09T03:29:56.220Z,753.00
2023-05-09T03:30:56.291Z,761.00
2023-05-09T03:31:56.358Z,763.00
2023-05-09T03:32:56.321Z,758.00
2023-05-09T03:33:56.339Z,743.00
2023-05-09T03:34:56.341Z,765.00
2023-05-09T03:35:56.407Z,760.00
2023-05-09T03:36:56.483Z,755.00
2023-05-09T03:37:56.521Z,759.00
2023-05-09T03:38:56.551Z,755.00
2023-05-09T03:39:56.568Z,745.00
2023-05-09T03:40:56.600Z,759.00
2023-05-09T03:41:56.670Z,757.00
2023-05-09T03:42:56.682Z,759.00
2023-05-09T03:43:56.723Z,759.00
2023-05-09T03:44:56.869Z,764.00
2023-05-09T03:45:56.813Z,744.00
2023-05-09T03:46:56.883Z,751.00
2023-05-09T03:47:56.923Z,742.00
2023-05-09T03:48:56.952Z,762.00
2023-05-09T03:49:57.018Z,762.00
2023-05-09T03:50:57.044Z,757.00
2023-05-09T03:51:57.090Z,755.00
2023-05-09T03:52:57.154Z,748.00
2023-05-09T03:53:57.206Z,746.00
2023-05-09T03:54:57.244Z,754.00
2023-05-09T03:55:57.283Z,754.00
2023-05-09T03:56:57.317Z,763.00
2023-05-09T03:57:57.340Z,736.00
2023-05-09T03:58:57.377Z,759.00
2023-05-09T03:59:57.413Z,760.00
2023-05-09T04:00:57.547Z,743.00
2023-05-09T04:01:57.514Z,727.00
2023-05-09T04:02:57.528Z,754.00
2023-05-09T04:03:57.623Z,740.00
2023-05-09T04:04:57.521Z,756.00
2023-05-09T04:05:57.561Z,752.00
2023-05-09T04:06:57.563Z,771.00
2023-05-09T04:07:57.635Z,753.00
2023-05-09T04:08:57.647Z,742.00
2023-05-09T04:09:57.649Z,742.00
2023-05-09T04:10:57.675Z,751.00
2023-05-09T04:11:57.683Z,756.00
2023-05-09T04:12:57.773Z,750.00
2023-05-09T04:13:57.692Z,755.00
2023-05-09T04:14:57.721Z,758.00
2023-05-09T04:15:57.804Z,745.00
2023-05-09T04:16:57.903Z,738.00
2023-05-09T04:17:57.844Z,739.00
2023-05-09T04:18:57.860Z,757.00
2023-05-09T04:19:57.895Z,742.00
2023-05-09T04:20:57.860Z,736.00
2023-05-09T04:21:57.942Z,728.00
2023-05-09T04:22:57.956Z,732.00
2023-05-09T04:23:58.060Z,748.00
2023-05-09T04:24:58.062Z,741.00
2023-05-09T04:25:58.125Z,750.00
2023-05-09T04:26:58.174Z,743.00
2023-05-09T04:27:58.258Z,726.00
2023-05-09T04:28:58.348Z,743.00
2023-05-09T04:29:58.365Z,720.00
2023-05-09T04:30:58.498Z,728.00
2023-05-09T04:31:58.532Z,736.00
2023-05-09T04:32:58.541Z,730.00
2023-05-09T04:33:58.423Z,722.00
2023-05-09T04:34:58.450Z,718.00
2023-05-09T04:35:58.453Z,708.00
2023-05-09T04:36:58.456Z,724.00
2023-05-09T04:37:58.469Z,714.00
2023-05-09T04:38:58.528Z,709.00
2023-05-09T04:39:58.572Z,721.00
2023-05-09T04:40:58.594Z,708.00
2023-05-09T04:41:58.628Z,723.00
2023-05-09T04:42:58.658Z,723.00
2023-05-09T04:43:58.685Z,716.00
2023-05-09T04:44:58.728Z,721.00
2023-05-09T04:45:58.828Z,728.00
2023-05-09T04:46:58.787Z,721.00
2023-05-09T04:47:58.946Z,713.00
2023-05-09T04:48:58.958Z,718.00
2023-05-09T04:49:58.915Z,710.00
2023-05-09T04:50:59.100Z,728.00
2023-05-09T04:51:58.930Z,729.00
2023-05-09T04:52:58.972Z,714.00
2023-05-09T04:53:59.057Z,712.00
2023-05-09T04:54:59.063Z,721.00
2023-05-09T04:55:59.107Z,712.00
2023-05-09T04:57:09.859Z,714.00
2023-05-09T04:58:00.079Z,714.00
2023-05-09T04:58:59.084Z,717.00
2023-05-09T04:59:59.089Z,715.00
2023-05-09T05:00:59.030Z,709.00
2023-05-09T05:01:59.121Z,733.00
2023-05-09T05:02:59.115Z,727.00
2023-05-09T05:03:59.068Z,711.00
2023-05-09T05:05:17.599Z,709.00
2023-05-09T05:06:00.052Z,711.00
2023-05-09T05:06:59.038Z,712.00
2023-05-09T05:07:59.010Z,712.00
2023-05-09T05:08:59.121Z,714.00
2023-05-09T05:09:58.969Z,718.00
2023-05-09T05:10:58.956Z,715.00
2023-05-09T05:12:02.951Z,704.00
2023-05-09T05:12:59.006Z,705.00
2023-05-09T05:13:58.971Z,707.00
2023-05-09T05:14:58.941Z,706.00
2023-05-09T05:15:59.023Z,713.00
2023-05-09T05:16:58.962Z,701.00
2023-05-09T05:17:58.991Z,691.00
2023-05-09T05:18:58.921Z,688.00
2023-05-09T05:19:58.884Z,709.00
2023-05-09T05:20:59.018Z,699.00
2023-05-09T05:21:58.929Z,701.00
2023-05-09T05:22:58.878Z,706.00
2023-05-09T05:23:58.932Z,687.00
2023-05-09T05:24:58.979Z,698.00
2023-05-09T05:25:59.031Z,708.00
2023-05-09T05:26:59.110Z,670.00
2023-05-09T05:27:59.168Z,696.00
2023-05-09T05:28:59.248Z,694.00
2023-05-09T05:29:59.221Z,700.00
2023-05-09T05:30:59.380Z,693.00
2023-05-09T05:31:59.490Z,689.00
2023-05-09T05:32:59.474Z,691.00
2023-05-09T05:33:59.462Z,705.00
2023-05-09T05:34:59.832Z,689.00
2023-05-09T05:35:59.579Z,681.00
2023-05-09T05:36:59.701Z,688.00
2023-05-09T05:37:59.617Z,684.00
2023-05-09T05:38:59.719Z,708.00
2023-05-09T05:39:59.767Z,691.00
2023-05-09T05:40:59.772Z,707.00
2023-05-09T05:41:59.883Z,699.00
2023-05-09T05:42:59.944Z,712.00
2023-05-09T05:43:59.955Z,764.00
2023-05-09T05:45:00.009Z,751.00
2023-05-09T05:46:00.013Z,755.00
2023-05-09T05:47:00.010Z,764.00
2023-05-09T05:48:00.157Z,785.00
2023-05-09T05:49:00.127Z,789.00
2023-05-09T05:50:00.228Z,813.00
2023-05-09T05:51:00.188Z,830.00
2023-05-09T05:52:00.244Z,854.00
2023-05-09T05:53:00.338Z,857.00
2023-05-09T05:54:00.271Z,880.00
2023-05-09T05:55:02.133Z,888.00
2023-05-09T05:56:00.295Z,895.00
2023-05-09T05:57:00.708Z,902.00
2023-05-09T05:58:00.440Z,931.00
2023-05-09T05:59:00.405Z,943.00
2023-05-09T06:00:00.474Z,950.00
2023-05-09T06:01:00.540Z,980.00
2023-05-09T06:02:00.605Z,1002.00
2023-05-09T06:03:00.657Z,1002.00
2023-05-09T06:04:00.563Z,1033.00
2023-05-09T06:05:00.548Z,1044.00
2023-05-09T06:06:00.507Z,1079.00
2023-05-09T06:07:00.549Z,1093.00
2023-05-09T06:08:00.518Z,1114.00
2023-05-09T06:09:00.580Z,1114.00
2023-05-09T06:10:00.514Z,1142.00
2023-05-09T06:11:00.526Z,1167.00
2023-05-09T06:12:00.545Z,1192.00
2023-05-09T06:13:00.567Z,1212.00
2023-05-09T06:14:00.556Z,1226.00
2023-05-09T06:15:00.567Z,1243.00
2023-05-09T06:16:14.987Z,1245.00
2023-05-09T06:17:01.571Z,1246.00
2023-05-09T06:18:00.570Z,1252.00
2023-05-09T06:19:00.526Z,1265.00
2023-05-09T06:20:00.584Z,1291.00
2023-05-09T06:21:00.515Z,1328.00
2023-05-09T06:22:00.532Z,1331.00
2023-05-09T06:23:00.510Z,1352.00
2023-05-09T06:24:07.733Z,1354.00
2023-05-09T06:25:01.636Z,1356.00
2023-05-09T06:26:00.488Z,1360.00
2023-05-09T06:27:00.475Z,1363.00
2023-05-09T06:28:00.458Z,1361.00
2023-05-09T06:29:00.446Z,1354.00
2023-05-09T06:30:02.694Z,1370.00
2023-05-09T06:31:01.533Z,1354.00
2023-05-09T06:32:00.522Z,1327.00
2023-05-09T06:33:00.438Z,1330.00
2023-05-09T06:34:00.429Z,1337.00
2023-05-09T06:35:00.416Z,1288.00
2023-05-09T06:36:00.501Z,1282.00
2023-05-09T06:37:00.452Z,1265.00
2023-05-09T06:38:00.411Z,1202.00
2023-05-09T06:39:00.426Z,1144.00
2023-05-09T06:40:00.391Z,1120.00
2023-05-09T06:41:00.457Z,1123.00
2023-05-09T06:42:00.376Z,1097.00
2023-05-09T06:43:00.406Z,1080.00
2023-05-09T06:44:00.375Z,1085.00
2023-05-09T06:45:00.417Z,1097.00
2023-05-09T06:46:00.446Z,1074.00
2023-05-09T06:47:00.429Z,1075.00
2023-05-09T06:48:00.477Z,1054.00
2023-05-09T06:49:00.469Z,1065.00
2023-05-09T06:50:00.511Z,1071.00
2023-05-09T06:51:00.543Z,1058.00
2023-05-09T06:52:00.666Z,1044.00
2023-05-09T06:53:00.729Z,1062.00
2023-05-09T06:54:00.654Z,1059.00
2023-05-09T06:55:00.685Z,1040.00
2023-05-09T06:56:00.715Z,965.00
2023-05-09T06:57:00.817Z,952.00
2023-05-09T06:58:00.772Z,945.00
2023-05-09T06:59:00.811Z,932.00
2023-05-09T07:00:00.804Z,928.00
2023-05-09T07:01:00.850Z,924.00
2023-05-09T07:02:01.025Z,907.00
2023-05-09T07:03:00.980Z,895.00
2023-05-09T07:04:00.947Z,884.00
2023-05-09T07:05:01.044Z,905.00
2023-05-09T07:06:01.020Z,858.00
2023-05-09T07:07:01.082Z,853.00
2023-05-09T07:08:01.085Z,859.00
2023-05-09T07:09:01.078Z,852.00
2023-05-09T07:10:10.698Z,844.00
2023-05-09T07:11:02.066Z,845.00
2023-05-09T07:12:01.151Z,846.00
2023-05-09T07:13:01.411Z,843.00
2023-05-09T07:14:01.129Z,827.00
2023-05-09T07:15:01.040Z,799.00
2023-05-09T07:16:01.091Z,842.00
2023-05-09T07:17:18.165Z,813.00
2023-05-09T07:18:02.067Z,815.00
2023-05-09T07:19:01.023Z,818.00
2023-05-09T07:20:01.142Z,819.00
2023-05-09T07:21:01.008Z,825.00
2023-05-09T07:22:01.015Z,810.00
2023-05-09T07:23:01.032Z,821.00
2023-05-09T07:24:00.996Z,822.00
2023-05-09T07:25:01.247Z,843.00
2023-05-09T07:26:01.028Z,859.00
2023-05-09T07:27:00.948Z,859.00
2023-05-09T07:28:01.000Z,844.00
2023-05-09T07:29:01.059Z,841.00
2023-05-09T07:30:00.937Z,823.00
2023-05-09T07:31:00.937Z,836.00
2023-05-09T07:32:00.982Z,792.00
2023-05-09T07:33:01.012Z,758.00
2023-05-09T07:34:01.007Z,747.00
2023-05-09T07:35:01.035Z,769.00
2023-05-09T07:36:01.275Z,786.00
2023-05-09T07:37:01.410Z,815.00
2023-05-09T07:38:01.262Z,820.00
2023-05-09T07:39:01.239Z,839.00
2023-05-09T07:40:01.295Z,810.00
2023-05-09T07:41:01.333Z,799.00
2023-05-09T07:42:01.366Z,807.00
2023-05-09T07:43:01.412Z,806.00
2023-05-09T07:44:01.442Z,806.00
2023-05-09T07:45:01.600Z,821.00
2023-05-09T07:46:01.566Z,842.00
2023-05-09T07:47:01.614Z,847.00
2023-05-09T07:48:01.663Z,867.00
2023-05-09T07:49:01.605Z,862.00
2023-05-09T07:50:01.723Z,863.00
2023-05-09T07:51:01.729Z,874.00
2023-05-09T07:52:01.710Z,881.00
2023-05-09T07:53:01.703Z,896.00
2023-05-09T07:54:01.715Z,905.00
2023-05-09T07:55:01.717Z,922.00
2023-05-09T07:56:01.773Z,931.00
2023-05-09T07:57:01.823Z,949.00
2023-05-09T07:58:01.832Z,946.00
2023-05-09T07:59:01.842Z,966.00
2023-05-09T08:00:01.921Z,978.00
2023-05-09T08:01:02.050Z,993.00
2023-05-09T08:02:02.089Z,1004.00
2023-05-09T08:03:02.256Z,1030.00
2023-05-09T08:04:02.210Z,1037.00
2023-05-09T08:05:02.180Z,1042.00
2023-05-09T08:06:02.254Z,1055.00
2023-05-09T08:07:02.330Z,1070.00
2023-05-09T08:08:02.421Z,1074.00
2023-05-09T08:09:02.432Z,1022.00
2023-05-09T08:10:02.488Z,984.00
2023-05-09T08:11:02.454Z,963.00
2023-05-09T08:12:02.515Z,965.00
2023-05-09T08:13:02.597Z,1039.00
2023-05-09T08:14:02.562Z,1070.00
2023-05-09T08:15:02.486Z,1070.00
2023-05-09T08:16:02.620Z,1060.00
2023-05-09T08:17:02.706Z,1064.00
2023-05-09T08:18:02.792Z,1077.00
2023-05-09T08:19:02.787Z,1087.00
2023-05-09T08:20:02.816Z,1076.00
2023-05-09T08:21:02.942Z,1091.00
2023-05-09T08:22:02.953Z,1111.00
2023-05-09T08:23:03.025Z,1124.00
2023-05-09T08:24:03.111Z,1119.00
2023-05-09T08:25:03.174Z,1130.00
2023-05-09T08:26:03.114Z,1098.00
2023-05-09T08:27:03.282Z,1088.00
2023-05-09T08:28:03.173Z,982.00
2023-05-09T08:29:03.228Z,928.00
2023-05-09T08:30:03.319Z,847.00
2023-05-09T08:31:04.086Z,834.00
2023-05-09T08:32:03.561Z,818.00
2023-05-09T08:33:03.748Z,791.00
2023-05-09T08:34:03.295Z,760.00
2023-05-09T08:35:03.333Z,745.00
2023-05-09T08:36:03.362Z,695.00
2023-05-09T08:37:03.745Z,680.00
2023-05-09T08:38:03.766Z,665.00
2023-05-09T08:39:03.445Z,656.00
2023-05-09T08:40:03.466Z,645.00
2023-05-09T08:41:03.536Z,640.00
2023-05-09T08:42:03.548Z,652.00
2023-05-09T08:43:03.787Z,693.00
2023-05-09T08:44:03.709Z,700.00
2023-05-09T08:45:03.722Z,700.00
2023-05-09T08:46:03.845Z,736.00
2023-05-09T08:47:03.834Z,775.00
2023-05-09T08:48:03.895Z,780.00
2023-05-09T08:49:03.946Z,800.00
2023-05-09T08:50:03.894Z,812.00
2023-05-09T08:51:03.928Z,804.00
2023-05-09T08:52:03.868Z,821.00
2023-05-09T08:53:03.955Z,854.00
2023-05-09T08:54:03.982Z,861.00
2023-05-09T08:55:04.080Z,889.00
2023-05-09T08:56:04.128Z,898.00
2023-05-09T08:57:04.205Z,905.00
2023-05-09T08:58:04.306Z,923.00
2023-05-09T08:59:04.204Z,963.00
2023-05-09T09:00:04.380Z,972.00
2023-05-09T09:01:04.339Z,999.00
2023-05-09T09:02:04.479Z,1010.00
2023-05-09T09:03:04.443Z,1028.00
2023-05-09T09:04:04.473Z,1031.00
2023-05-09T09:05:05.158Z,1046.00
2023-05-09T09:06:04.552Z,1048.00
2023-05-09T09:07:04.646Z,1059.00
2023-05-09T09:08:04.763Z,1075.00
2023-05-09T09:09:04.704Z,1095.00
2023-05-09T09:10:04.675Z,1085.00
2023-05-09T09:11:04.719Z,1093.00
2023-05-09T09:12:04.763Z,1099.00
2023-05-09T09:13:04.862Z,1093.00
2023-05-09T09:14:04.838Z,1080.00
2023-05-09T09:15:04.910Z,1078.00
2023-05-09T09:16:04.959Z,1086.00
2023-05-09T09:17:05.005Z,1099.00
2023-05-09T09:18:07.812Z,1092.00
2023-05-09T09:19:04.963Z,1111.00
2023-05-09T09:20:05.052Z,1123.00
2023-05-09T09:21:05.041Z,1125.00
2023-05-09T09:22:05.000Z,1133.00
2023-05-09T09:23:04.973Z,1127.00
2023-05-09T09:24:05.082Z,1057.00
2023-05-09T09:25:04.980Z,936.00
2023-05-09T09:26:05.074Z,899.00
2023-05-09T09:27:04.925Z,768.00
2023-05-09T09:28:05.011Z,754.00
2023-05-09T09:29:04.938Z,751.00
2023-05-09T09:30:04.945Z,829.00
2023-05-09T09:31:04.877Z,886.00
2023-05-09T09:32:05.020Z,874.00
2023-05-09T09:33:05.226Z,862.00
2023-05-09T09:34:04.884Z,873.00
2023-05-09T09:35:05.048Z,884.00
2023-05-09T09:36:04.844Z,910.00
2023-05-09T09:37:04.946Z,931.00
2023-05-09T09:38:04.828Z,933.00
2023-05-09T09:39:04.904Z,942.00
2023-05-09T09:40:04.985Z,949.00
2023-05-09T09:41:04.817Z,950.00
2023-05-09T09:42:04.826Z,969.00
2023-05-09T09:43:04.808Z,962.00
2023-05-09T09:44:04.918Z,955.00
2023-05-09T09:45:04.814Z,969.00
2023-05-09T09:46:04.897Z,967.00
2023-05-09T09:47:04.745Z,955.00
2023-05-09T09:48:04.885Z,955.00
2023-05-09T09:49:04.769Z,970.00
2023-05-09T09:50:04.743Z,969.00
2023-05-09T09:51:04.995Z,985.00
2023-05-09T09:52:04.739Z,971.00
2023-05-09T09:53:04.871Z,975.00
2023-05-09T09:54:04.838Z,973.00
2023-05-09T09:55:04.748Z,972.00
2023-05-09T09:56:04.790Z,970.00
2023-05-09T09:57:04.696Z,973.00
2023-05-09T09:58:04.691Z,965.00
2023-05-09T09:59:04.724Z,967.00
2023-05-09T10:00:04.719Z,971.00
2023-05-09T10:01:04.669Z,966.00
2023-05-09T10:02:07.646Z,958.00
2023-05-09T10:03:04.803Z,965.00
2023-05-09T10:04:04.727Z,972.00
2023-05-09T10:05:04.742Z,961.00
2023-05-09T10:06:04.645Z,968.00
2023-05-09T10:07:04.654Z,957.00
2023-05-09T10:08:04.603Z,954.00
2023-05-09T10:09:04.708Z,956.00
2023-05-09T10:10:04.730Z,949.00
2023-05-09T10:11:04.664Z,954.00
2023-05-09T10:12:04.580Z,950.00
2023-05-09T10:13:04.612Z,941.00
2023-05-09T10:14:04.585Z,938.00
2023-05-09T10:15:04.574Z,935.00
2023-05-09T10:16:04.645Z,940.00
2023-05-09T10:17:05.260Z,925.00
2023-05-09T10:18:04.697Z,944.00
2023-05-09T10:19:04.608Z,929.00
2023-05-09T10:20:04.540Z,922.00
2023-05-09T10:21:04.563Z,923.00
2023-05-09T10:22:04.515Z,926.00
2023-05-09T10:23:04.530Z,925.00
2023-05-09T10:24:04.582Z,924.00
2023-05-09T10:25:04.607Z,913.00
2023-05-09T10:26:04.520Z,920.00
2023-05-09T10:27:04.499Z,904.00
2023-05-09T10:28:04.500Z,915.00
2023-05-09T10:29:04.603Z,903.00
2023-05-09T10:30:04.489Z,905.00
2023-05-09T10:31:06.416Z,894.00
2023-05-09T10:32:04.510Z,895.00
2023-05-09T10:33:04.516Z,895.00
2023-05-09T10:34:04.453Z,902.00
2023-05-09T10:35:04.432Z,895.00
2023-05-09T10:36:04.456Z,893.00
2023-05-09T10:37:04.453Z,899.00
2023-05-09T10:38:04.497Z,885.00
2023-05-09T10:39:04.456Z,881.00
2023-05-09T10:40:04.425Z,880.00
2023-05-09T10:41:04.372Z,885.00
2023-05-09T10:42:04.385Z,872.00
2023-05-09T10:43:04.346Z,886.00
2023-05-09T10:44:04.396Z,874.00
2023-05-09T10:45:04.334Z,858.00
2023-05-09T10:46:04.420Z,867.00
2023-05-09T10:47:04.439Z,868.00
2023-05-09T10:48:04.383Z,864.00
2023-05-09T10:49:04.334Z,861.00
2023-05-09T10:50:04.334Z,865.00
2023-05-09T10:51:04.590Z,873.00
2023-05-09T10:52:04.270Z,870.00
2023-05-09T10:53:04.339Z,852.00
2023-05-09T10:54:04.346Z,857.00
2023-05-09T10:55:04.281Z,853.00
2023-05-09T10:56:04.275Z,856.00
2023-05-09T10:57:04.422Z,858.00
2023-05-09T10:58:04.236Z,854.00
2023-05-09T10:59:04.275Z,859.00
2023-05-09T11:00:04.267Z,849.00
2023-05-09T11:01:04.263Z,846.00
2023-05-09T11:02:04.241Z,841.00
2023-05-09T11:03:04.327Z,842.00
2023-05-09T11:04:04.351Z,844.00
2023-05-09T11:05:04.223Z,828.00
2023-05-09T11:06:04.214Z,836.00
2023-05-09T11:07:04.226Z,846.00
2023-05-09T11:08:04.244Z,836.00
2023-05-09T11:09:04.234Z,834.00
2023-05-09T11:10:04.183Z,830.00
2023-05-09T11:11:04.200Z,822.00
2023-05-09T11:12:04.199Z,820.00
2023-05-09T11:13:04.550Z,812.00
2023-05-09T11:14:04.214Z,830.00
2023-05-09T11:15:04.235Z,822.00
2023-05-09T11:16:04.447Z,823.00
2023-05-09T11:17:04.476Z,810.00
2023-05-09T11:18:05.338Z,824.00
2023-05-09T11:19:04.426Z,826.00
2023-05-09T11:20:04.508Z,821.00
2023-05-09T11:21:04.551Z,810.00
2023-05-09T11:22:04.659Z,814.00
2023-05-09T11:23:04.882Z,801.00
2023-05-09T11:24:04.712Z,808.00
2023-05-09T11:25:04.832Z,806.00
2023-05-09T11:26:04.734Z,809.00
2023-05-09T11:27:04.810Z,815.00
2023-05-09T11:28:04.824Z,805.00
2023-05-09T11:29:04.959Z,810.00
2023-05-09T11:30:04.920Z,800.00
2023-05-09T11:31:04.969Z,809.00
2023-05-09T11:32:05.068Z,807.00
2023-05-09T11:33:05.080Z,793.00
2023-05-09T11:34:05.155Z,783.00
2023-05-09T11:35:05.171Z,797.00
2023-05-09T11:36:05.172Z,794.00
2023-05-09T11:37:05.216Z,789.00
2023-05-09T11:38:05.272Z,794.00
2023-05-09T11:39:05.286Z,789.00
2023-05-09T11:40:05.322Z,786.00
2023-05-09T11:41:05.372Z,772.00
2023-05-09T11:42:05.399Z,761.00
2023-05-09T11:43:05.452Z,763.00
2023-05-09T11:44:05.468Z,763.00
2023-05-09T11:45:05.605Z,774.00
2023-05-09T11:46:05.611Z,751.00
2023-05-09T11:47:05.649Z,746.00
2023-05-09T11:48:05.820Z,756.00
2023-05-09T11:49:05.800Z,747.00
2023-05-09T11:50:05.765Z,772.00
2023-05-09T11:51:05.788Z,752.00
2023-05-09T11:52:05.830Z,748.00
2023-05-09T11:53:05.899Z,749.00
2023-05-09T11:54:05.900Z,743.00
2023-05-09T11:55:06.045Z,759.00
2023-05-09T11:56:06.023Z,750.00
2023-05-09T11:57:06.026Z,741.00
2023-05-09T11:58:06.066Z,746.00
2023-05-09T11:59:06.128Z,751.00
2023-05-09T12:00:06.132Z,748.00
2023-05-09T12:01:06.312Z,744.00
2023-05-09T12:02:06.232Z,731.00
2023-05-09T12:03:06.317Z,738.00
2023-05-09T12:04:06.393Z,738.00
2023-05-09T12:05:06.381Z,716.00
2023-05-09T12:06:06.419Z,724.00
2023-05-09T12:07:06.442Z,744.00
2023-05-09T12:08:06.558Z,721.00
2023-05-09T12:09:06.516Z,727.00
2023-05-09T12:10:06.557Z,738.00
2023-05-09T12:11:06.640Z,715.00
2023-05-09T12:12:06.753Z,725.00
2023-05-09T12:13:06.704Z,701.00
2023-05-09T12:14:06.801Z,706.00
2023-05-09T12:15:06.787Z,696.00
2023-05-09T12:16:06.838Z,710.00
2023-05-09T12:17:06.958Z,711.00
2023-05-09T12:18:06.934Z,703.00
2023-05-09T12:19:06.913Z,697.00
2023-05-09T12:20:07.007Z,701.00
2023-05-09T12:21:07.014Z,703.00
2023-05-09T12:22:07.089Z,700.00
2023-05-09T12:23:07.274Z,699.00
2023-05-09T12:24:07.125Z,709.00
2023-05-09T12:25:07.161Z,700.00
2023-05-09T12:26:07.184Z,682.00